CZSTCYZP

Guest
Details From CZST - STEWART
To CYZP - Sandspit
Flight Number -
Tags generated
Created
Modified
Stats Distance 173 nm / 321 km
Max Altitude 18,800 ft / 5,730 m
Waypoints 3
Social Downloads 1
Likes 0
Share VATSIM

Download

Looking for another format? Having issues loading an existing format? Contact us
Advertisement - Login to hide

Notes

Basic altitude profile: - Ascent Rate: 1500ft/min - Ascent Speed: 250kts - Cruise Altitude: 20000ft - Cruise Speed: 420kts - Descent Rate: 2000ft/min - Descent Speed: 250kts Options: - Use NATs: yes - Use PACOTS: yes - Use low airways: yes - Use high airways: yes

Route

CZST ANN01 CYZP

ID Type Via Altitude Latitude Longitude Leg Dist Tot Dist Heading (true) Name
O CZST APT - 0 ft / 0 m 55.93542˚ -129.98403˚ - 0 nm - STEWART
ANN01 FIX - 18,800 ft / 5,730 m 54.63313˚ -130.96841˚ 85 nm 85 nm 204° / 203° -
O CYZP APT - 0 ft / 0 m 53.25430˚ -131.81375˚ 88 nm 173 nm 200° / 200° Sandspit

Altitude Profile

Advertisement - Login to hide

Weather


0- 5 10 15 20 25 30 35+ Temperature / ° C

Clouds and Precipitation
Forecast for 2017-12-14 00:00 UTC. Updated an hour ago

Ground ~20,000 ft ~40,000 ft Winds

CZST

Details ICAO CZST
Name STEWART
Region Canada
Timezone America/Vancouver (UTC-8.0)
Stats Elevation 24 ft / 7 m (AMSL)
Location 55.935417° -129.984029°
Runways 1
Magnetic Variation 18.687° E

METAR

CZST 140000Z 00000KT 15SM FEW006 SCT045 OVC060 01/01 A3046 RMK SF2SC1SC5 CLIMAT 2.5/0.4/0.0 SLP318

Decode

TAF

Not found

Departure Runways

ID Width Length Bearing (true) Bearing (mag) Surface Threshold Offset Overrun Length
18 75 ft / 23 m 3,873 ft / 1,180 m 194.43° 175.74° Asphalt 0 ft / 0 m 0 ft / 0 m
36 75 ft / 23 m 3,873 ft / 1,180 m 14.42° 355.73° Asphalt 0 ft / 0 m 0 ft / 0 m

CYZP

Details ICAO CYZP (YZP)
Name Sandspit
Region Canada
Timezone America/Vancouver (UTC-8.0)
Stats Elevation 20 ft / 6 m (AMSL)
Location 53.254303° -131.813752°
Runways 1
Magnetic Variation 17.993° E

METAR

CYZP 140000Z AUTO 14023G29KT 8SM BKN008 BKN090 OVC130 09/08 A3029 RMK SLP258

Decode

TAF

TAF AMD CYZP 140013Z 1400/1407 14020G30KT P6SM SCT008 BKN080 TEMPO 1400/1403 BKN008 OVC080 FM140300 14020G30KT P6SM BKN100 RMK FCST BASED ON AUTO OBS. NXT FCST BY 140100Z

Decode

Destination Runways

ID Width Length Bearing (true) Bearing (mag) Surface Threshold Offset Overrun Length
12 151 ft / 46 m 5,125 ft / 1,562 m 144.44° 126.45° Asphalt 0 ft / 0 m 0 ft / 0 m
30 151 ft / 46 m 5,125 ft / 1,562 m 324.45° 306.46° Asphalt 0 ft / 0 m 0 ft / 0 m

Approach Navaids

Runway Type Ident Frequency Range Bearing (true) Bearing (mag) Slope Elevation
12 Localiser IZP 109.50 MHz 18 nm / 33 km 144.57° 126.58° - 10 ft / 3 m (AMSL)
12 Glidescope IZP 109.50 MHz 10 nm / 19 km 144.45° 126.45° 3.00° 9 ft / 3 m (AMSL)